Time;durP1;ratioP1;P1;durP2;ratioP2;P2;SDS_P1;SDS_P2;PMS_P1;PMS_P2;Temp;Humidity;BMP_temperature;BMP_pressure;BME280_temperature;BME280_humidity;BME280_pressure;Samples;Min_cycle;Max_cycle;Signal;HPM_P1;HPM_P2
2023/01/13 00:00:58;;;;;;;2.17;0.67;;;11.20;99.90;;;;;;7394852;19;20599;-76
2023/01/13 00:03:24;;;;;;;1.63;0.60;;;11.20;99.90;;;;;;7393261;19;20139;-75
2023/01/13 00:05:50;;;;;;;1.33;0.50;;;11.00;99.90;;;;;;7393537;19;20166;-75
2023/01/13 00:08:16;;;;;;;0.83;0.60;;;11.30;99.90;;;;;;7395326;19;20154;-76
2023/01/13 00:10:47;;;;;;;2.33;0.83;;;11.40;99.90;;;;;;7395701;19;20138;-76
2023/01/13 00:13:14;;;;;;;1.40;0.57;;;11.40;99.90;;;;;;7392806;19;20437;-76
2023/01/13 00:15:40;;;;;;;0.60;0.50;;;11.40;99.90;;;;;;7396441;19;20166;-76
2023/01/13 00:18:06;;;;;;;1.23;0.47;;;11.50;99.90;;;;;;7393669;19;20134;-76
2023/01/13 00:20:31;;;;;;;0.70;0.50;;;11.30;99.90;;;;;;7394231;19;20134;-75
2023/01/13 00:22:58;;;;;;;1.90;0.60;;;11.30;99.90;;;;;;7393208;19;20154;-75
2023/01/13 00:25:25;;;;;;;2.23;0.87;;;11.20;99.90;;;;;;7393154;19;20155;-76
2023/01/13 00:27:50;;;;;;;2.63;0.87;;;11.20;99.90;;;;;;7389758;19;20150;-77
2023/01/13 00:30:16;;;;;;;1.17;0.53;;;11.30;99.90;;;;;;7393164;19;21477;-77
2023/01/13 00:32:42;;;;;;;1.23;0.60;;;11.30;99.90;;;;;;7392753;19;20143;-76
2023/01/13 00:35:08;;;;;;;1.53;0.57;;;11.40;99.90;;;;;;7393165;19;20646;-75
2023/01/13 00:37:38;;;;;;;1.97;0.50;;;11.40;99.90;;;;;;7393792;19;20154;-76
2023/01/13 00:40:06;;;;;;;1.93;0.90;;;11.50;99.90;;;;;;7392355;19;20150;-76
2023/01/13 00:45:16;;;;;;;0.53;0.50;;;11.50;99.90;;;;;;7392758;19;20163;-77
2023/01/13 00:47:41;;;;;;;1.87;0.83;;;11.50;99.90;;;;;;7393422;19;20147;-76
2023/01/13 00:50:08;;;;;;;0.80;0.50;;;11.50;99.90;;;;;;7394379;19;20143;-75
2023/01/13 00:52:34;;;;;;;1.00;0.57;;;11.40;99.90;;;;;;7390998;19;20150;-76
2023/01/13 00:55:00;;;;;;;1.50;0.87;;;11.30;99.90;;;;;;7391927;19;20135;-76
2023/01/13 00:57:25;;;;;;;1.37;0.73;;;11.30;99.90;;;;;;7393179;19;20630;-75
2023/01/13 00:59:51;;;;;;;1.23;0.80;;;11.20;99.90;;;;;;7393739;19;20142;-76
2023/01/13 01:02:17;;;;;;;1.90;0.90;;;11.50;99.90;;;;;;7393924;19;20470;-78
2023/01/13 01:04:45;;;;;;;1.50;0.80;;;11.50;99.90;;;;;;7387801;19;20159;-76
2023/01/13 01:07:11;;;;;;;1.43;0.70;;;11.60;99.90;;;;;;7393946;19;20161;-75
2023/01/13 01:09:38;;;;;;;1.33;0.80;;;11.40;99.90;;;;;;7395251;19;20147;-76
2023/01/13 01:12:04;;;;;;;0.60;0.53;;;11.50;99.90;;;;;;7392152;19;20163;-77
2023/01/13 01:14:31;;;;;;;3.10;0.77;;;11.30;99.90;;;;;;7392402;19;20591;-76
2023/01/13 01:16:57;;;;;;;1.07;0.50;;;11.20;99.90;;;;;;7392486;19;20162;-76
2023/01/13 01:19:23;;;;;;;0.80;0.40;;;11.30;99.90;;;;;;7395099;19;20142;-75
2023/01/13 01:21:48;;;;;;;1.90;0.80;;;11.40;99.90;;;;;;7393911;19;20143;-76
2023/01/13 01:24:15;;;;;;;2.30;0.80;;;11.50;99.90;;;;;;7394402;19;20551;-76
2023/01/13 01:26:41;;;;;;;2.90;0.67;;;11.50;99.90;;;;;;7391341;19;20146;-76
2023/01/13 01:29:10;;;;;;;1.73;0.53;;;11.40;99.90;;;;;;7389286;19;20576;-76
2023/01/13 01:31:36;;;;;;;1.65;0.57;;;11.40;99.90;;;;;;7393276;19;20222;-76
2023/01/13 01:34:02;;;;;;;3.13;0.50;;;11.30;99.90;;;;;;7389327;19;20174;-76
2023/01/13 01:36:30;;;;;;;0.67;0.40;;;11.50;99.90;;;;;;7394155;19;20150;-76
2023/01/13 01:38:58;;;;;;;1.63;0.50;;;11.70;99.90;;;;;;7392723;19;20610;-76
2023/01/13 01:41:28;;;;;;;0.83;0.50;;;11.70;99.90;;;;;;7391827;19;20154;-75
2023/01/13 01:44:03;;;;;;;1.57;0.40;;;11.60;99.90;;;;;;7393173;19;20126;-76
2023/01/13 01:46:28;;;;;;;2.43;0.47;;;11.60;99.90;;;;;;7393157;19;20141;-76
2023/01/13 01:49:09;;;;;;;0.47;0.47;;;11.60;99.90;;;;;;7395323;19;20889;-76
2023/01/13 01:51:48;;;;;;;1.65;0.57;;;11.50;99.90;;;;;;7391622;19;20153;-76
2023/01/13 01:54:24;;;;;;;1.43;0.57;;;11.60;99.90;;;;;;7391860;19;20575;-76
2023/01/13 01:56:50;;;;;;;0.83;0.53;;;11.70;99.90;;;;;;7392326;19;20142;-76
2023/01/13 01:59:17;;;;;;;0.90;0.70;;;11.60;99.90;;;;;;7394592;19;20571;-75
2023/01/13 02:01:44;;;;;;;1.48;0.60;;;11.60;99.90;;;;;;7392166;19;20153;-76
2023/01/13 02:04:28;;;;;;;1.40;0.50;;;11.50;99.90;;;;;;7390199;19;20155;-77
2023/01/13 02:06:55;;;;;;;0.43;0.40;;;11.50;99.90;;;;;;7385865;19;20470;-76
2023/01/13 02:09:21;;;;;;;2.83;0.60;;;11.40;99.90;;;;;;7393907;19;20149;-76
2023/01/13 02:14:33;;;;;;;3.90;0.60;;;11.60;99.90;;;;;;7389062;19;20246;-76
2023/01/13 02:17:42;;;;;;;1.07;0.33;;;11.50;99.90;;;;;;7389701;19;20148;-76
2023/01/13 02:20:29;;;;;;;0.83;0.50;;;11.50;99.90;;;;;;7390978;19;20160;-76
2023/01/13 02:23:05;;;;;;;1.13;0.60;;;11.60;99.90;;;;;;7390639;19;20591;-76
2023/01/13 02:25:37;;;;;;;0.83;0.40;;;11.60;99.90;;;;;;7390651;19;20221;-76
2023/01/13 02:31:41;;;;;;;0.85;0.50;;;11.60;99.90;;;;;;7390167;19;20146;-75
2023/01/13 02:34:17;;;;;;;0.63;0.50;;;11.60;99.90;;;;;;7386859;19;20515;-77
2023/01/13 02:37:03;;;;;;;0.90;0.70;;;11.40;99.90;;;;;;7388879;19;20161;-76
2023/01/13 02:40:10;;;;;;;1.73;0.40;;;11.40;99.90;;;;;;7390888;19;20162;-75
2023/01/13 02:45:43;;;;;;;2.23;0.60;;;11.50;99.90;;;;;;7387394;19;20170;-78
2023/01/13 02:48:11;;;;;;;2.50;0.70;;;11.30;99.90;;;;;;7390441;19;20153;-75
2023/01/13 02:50:43;;;;;;;0.80;0.50;;;11.30;99.90;;;;;;7393815;19;20142;-75
2023/01/13 02:53:20;;;;;;;1.93;0.70;;;11.40;99.90;;;;;;7384977;19;20130;-77
2023/01/13 02:55:50;;;;;;;1.23;0.40;;;11.50;99.90;;;;;;7386829;19;20142;-77
2023/01/13 02:58:22;;;;;;;0.77;0.50;;;11.40;99.90;;;;;;7387952;19;20139;-76
2023/01/13 03:00:49;;;;;;;1.80;0.67;;;11.50;99.90;;;;;;7390641;19;20142;-76
2023/01/13 03:03:15;;;;;;;1.67;0.60;;;11.40;99.90;;;;;;7384757;19;20135;-77
2023/01/13 03:05:43;;;;;;;2.13;0.87;;;11.60;99.90;;;;;;7391207;19;20167;-76
2023/01/13 03:08:52;;;;;;;1.20;0.67;;;11.50;99.90;;;;;;7393035;19;20151;-76
2023/01/13 03:11:19;;;;;;;0.97;0.60;;;11.40;99.90;;;;;;7389749;19;20226;-76
2023/01/13 03:14:00;;;;;;;1.87;0.40;;;11.50;99.90;;;;;;7388901;19;20639;-76
2023/01/13 03:16:31;;;;;;;1.70;0.60;;;11.50;99.90;;;;;;7391978;19;20206;-76
2023/01/13 03:19:28;;;;;;;1.60;0.60;;;11.50;99.90;;;;;;7395755;19;20151;-77
2023/01/13 03:21:55;;;;;;;2.72;0.60;;;11.40;99.90;;;;;;7392893;19;20139;-77
2023/01/13 03:24:33;;;;;;;1.20;0.60;;;11.40;99.90;;;;;;7394614;19;20158;-76
2023/01/13 03:27:19;;;;;;;0.47;0.40;;;11.40;99.90;;;;;;7391562;19;20138;-76
2023/01/13 03:29:52;;;;;;;1.50;0.80;;;11.40;99.90;;;;;;7395487;19;20150;-76
2023/01/13 03:32:57;;;;;;;2.67;0.60;;;11.50;99.90;;;;;;7397306;19;20180;-76
2023/01/13 03:35:29;;;;;;;1.00;0.47;;;11.40;99.90;;;;;;7392187;19;20145;-75
2023/01/13 03:38:22;;;;;;;1.13;0.60;;;11.40;99.90;;;;;;7394227;19;20141;-75
2023/01/13 03:40:57;;;;;;;1.08;0.50;;;11.40;99.90;;;;;;7396472;19;20221;-76
2023/01/13 03:46:40;;;;;;;0.70;0.50;;;11.40;99.90;;;;;;7393596;19;20147;-75
2023/01/13 03:49:08;;;;;;;0.57;0.50;;;11.40;99.90;;;;;;7395362;19;20234;-75
2023/01/13 03:51:39;;;;;;;1.67;0.80;;;11.50;99.90;;;;;;7397384;19;20147;-75
2023/01/13 03:54:10;;;;;;;1.30;0.57;;;11.50;99.90;;;;;;7390390;19;20131;-76
2023/01/13 03:56:59;;;;;;;1.97;0.50;;;11.40;99.90;;;;;;7397906;19;20627;-76
2023/01/13 03:59:33;;;;;;;1.33;0.57;;;11.40;99.90;;;;;;7396882;19;20214;-77
2023/01/13 04:02:18;;;;;;;0.83;0.40;;;11.60;99.90;;;;;;7394572;19;20170;-76
2023/01/13 04:04:49;;;;;;;1.70;0.50;;;11.50;99.90;;;;;;7395121;19;20490;-76
2023/01/13 04:07:25;;;;;;;2.07;0.70;;;11.50;99.90;;;;;;7396704;19;20508;-76
2023/01/13 04:09:56;;;;;;;0.90;0.60;;;11.30;99.90;;;;;;7393932;19;20455;-77
2023/01/13 04:12:27;;;;;;;2.25;0.50;;;11.40;99.90;;;;;;7394880;19;20210;-75
2023/01/13 04:14:54;;;;;;;1.93;0.50;;;11.30;99.90;;;;;;7393281;19;20169;-75
2023/01/13 04:17:20;;;;;;;0.97;0.50;;;11.30;99.90;;;;;;7390545;19;20725;-76
2023/01/13 04:19:46;;;;;;;1.27;0.60;;;11.40;99.90;;;;;;7393481;19;20134;-75
2023/01/13 04:22:12;;;;;;;2.50;0.60;;;11.40;99.90;;;;;;7395135;19;20130;-75
2023/01/13 04:24:37;;;;;;;0.70;0.50;;;11.40;99.90;;;;;;7392982;19;20142;-75
2023/01/13 04:27:03;;;;;;;0.67;0.40;;;11.40;99.90;;;;;;7385945;19;20122;-76
2023/01/13 04:29:29;;;;;;;0.87;0.40;;;11.50;99.90;;;;;;7391764;19;20135;-75
2023/01/13 04:31:55;;;;;;;6.13;0.80;;;11.30;99.90;;;;;;7393562;19;20142;-76
2023/01/13 04:34:20;;;;;;;1.23;0.60;;;11.30;99.90;;;;;;7394599;19;20491;-75
2023/01/13 04:36:46;;;;;;;2.17;0.50;;;11.30;99.90;;;;;;7394128;19;20137;-76
2023/01/13 04:39:12;;;;;;;1.97;0.50;;;11.40;99.90;;;;;;7396029;19;20144;-75
2023/01/13 04:42:10;;;;;;;0.77;0.40;;;11.30;99.90;;;;;;7393195;19;20525;-76
2023/01/13 04:44:33;;;;;;;0.30;0.30;;;11.50;99.90;;;;;;7391667;19;20169;-76
2023/01/13 04:47:03;;;;;;;1.67;0.60;;;11.30;99.90;;;;;;7389693;19;20138;-76
2023/01/13 04:49:29;;;;;;;2.07;0.53;;;11.40;99.90;;;;;;7395342;19;20528;-76
2023/01/13 04:51:54;;;;;;;1.05;0.50;;;11.30;99.90;;;;;;7394807;19;20142;-77
2023/01/13 04:54:20;;;;;;;1.73;0.50;;;11.50;99.90;;;;;;7394449;19;20134;-75
2023/01/13 04:56:46;;;;;;;0.50;0.30;;;11.50;99.90;;;;;;7392710;19;20486;-77
2023/01/13 04:59:12;;;;;;;0.73;0.50;;;11.40;99.90;;;;;;7395707;19;20134;-76
2023/01/13 05:01:39;;;;;;;1.53;0.60;;;11.50;99.90;;;;;;7395671;19;20135;-76
2023/01/13 05:04:05;;;;;;;0.40;0.40;;;11.50;99.90;;;;;;7395134;19;20142;-76
2023/01/13 05:06:31;;;;;;;0.30;0.30;;;11.60;99.90;;;;;;7390711;19;20146;-76
2023/01/13 05:08:56;;;;;;;0.95;0.50;;;11.70;99.90;;;;;;7391544;19;20769;-76
2023/01/13 05:16:59;;;;;;;0.40;0.40;;;11.50;99.90;;;;;;7393281;19;20199;-76
2023/01/13 05:19:29;;;;;;;3.23;0.50;;;11.60;99.90;;;;;;7393408;19;20150;-78
2023/01/13 05:27:25;;;;;;;2.63;0.50;;;11.60;99.90;;;;;;7393642;19;20574;-76
2023/01/13 05:29:51;;;;;;;2.20;0.70;;;11.70;99.90;;;;;;7391997;19;20199;-76
2023/01/13 05:32:17;;;;;;;1.70;0.50;;;11.60;99.90;;;;;;7392286;19;20142;-77
2023/01/13 05:34:42;;;;;;;0.73;0.43;;;11.50;99.90;;;;;;7392765;19;20522;-77
2023/01/13 05:37:09;;;;;;;1.60;0.47;;;11.50;99.90;;;;;;7392990;19;20608;-76
2023/01/13 05:45:05;;;;;;;0.45;0.45;;;11.50;99.90;;;;;;7392317;19;20142;-76
2023/01/13 05:47:31;;;;;;;0.47;0.40;;;11.50;99.90;;;;;;7392867;19;20142;-76
2023/01/13 05:49:57;;;;;;;0.70;0.60;;;11.50;99.90;;;;;;7391472;19;20141;-77
2023/01/13 05:52:23;;;;;;;2.20;0.70;;;11.70;99.90;;;;;;7392953;19;20508;-76
2023/01/13 05:54:49;;;;;;;1.17;0.40;;;11.70;99.90;;;;;;7391549;19;20146;-76
2023/01/13 05:57:15;;;;;;;0.97;0.50;;;11.70;99.90;;;;;;7392683;19;20147;-77
2023/01/13 05:59:41;;;;;;;0.43;0.40;;;11.60;99.90;;;;;;7392152;19;20153;-76
2023/01/13 06:02:07;;;;;;;2.08;0.80;;;11.50;99.90;;;;;;7385897;19;20582;-75
2023/01/13 06:04:33;;;;;;;2.40;0.90;;;11.60;99.90;;;;;;7387738;19;20553;-77
2023/01/13 06:06:59;;;;;;;1.07;0.50;;;11.70;99.90;;;;;;7387342;19;20548;-76
2023/01/13 06:09:24;;;;;;;1.52;0.50;;;11.60;99.90;;;;;;7390384;19;20138;-77
2023/01/13 06:11:50;;;;;;;0.77;0.50;;;11.60;99.90;;;;;;7392086;19;20134;-77
2023/01/13 06:14:16;;;;;;;0.47;0.30;;;11.60;99.90;;;;;;7392554;19;20439;-76
2023/01/13 06:16:44;;;;;;;0.37;0.37;;;11.60;99.90;;;;;;7391220;19;20168;-76
2023/01/13 06:19:14;;;;;;;0.50;0.40;;;11.60;99.90;;;;;;7388947;19;20134;-76
2023/01/13 06:21:40;;;;;;;1.27;0.40;;;11.70;99.90;;;;;;7390493;19;20154;-76
2023/01/13 06:24:07;;;;;;;0.63;0.43;;;11.60;99.90;;;;;;7390537;19;20218;-77
2023/01/13 06:26:37;;;;;;;0.67;0.30;;;11.50;99.90;;;;;;7387488;19;20170;-75
2023/01/13 06:29:05;;;;;;;0.30;0.30;;;11.50;99.90;;;;;;7393227;19;20149;-77
2023/01/13 06:31:35;;;;;;;1.33;0.53;;;11.60;99.90;;;;;;7392272;19;20580;-77
2023/01/13 06:34:10;;;;;;;1.27;0.70;;;11.60;99.90;;;;;;7386875;19;20158;-76
2023/01/13 06:36:50;;;;;;;0.40;0.40;;;11.60;99.90;;;;;;7392360;19;20173;-76
2023/01/13 06:39:20;;;;;;;0.40;0.40;;;11.60;99.90;;;;;;7393310;19;20572;-76
2023/01/13 06:44:36;;;;;;;1.53;0.70;;;11.50;99.90;;;;;;7388609;19;20162;-75
2023/01/13 06:47:03;;;;;;;0.50;0.50;;;11.60;99.90;;;;;;7385387;19;20496;-74
2023/01/13 06:49:29;;;;;;;0.67;0.50;;;11.70;99.90;;;;;;7384707;19;20142;-75
2023/01/13 06:51:55;;;;;;;0.63;0.53;;;11.70;99.90;;;;;;7383177;19;20901;-75
2023/01/13 06:54:20;;;;;;;0.50;0.40;;;11.60;99.90;;;;;;7383935;19;20576;-75
2023/01/13 06:56:46;;;;;;;1.00;0.50;;;11.50;99.90;;;;;;7383166;19;20629;-75
2023/01/13 06:59:12;;;;;;;0.73;0.50;;;11.50;99.90;;;;;;7379352;19;20149;-74
2023/01/13 07:01:38;;;;;;;0.53;0.50;;;11.60;99.90;;;;;;7386591;19;20177;-74
2023/01/13 07:04:04;;;;;;;0.40;0.30;;;11.70;99.90;;;;;;7386736;19;20156;-75
2023/01/13 07:06:29;;;;;;;0.90;0.67;;;11.60;99.90;;;;;;7384561;19;20479;-74
2023/01/13 07:08:55;;;;;;;0.47;0.40;;;11.70;99.90;;;;;;7385806;19;20139;-75
2023/01/13 07:11:21;;;;;;;0.90;0.43;;;11.70;99.90;;;;;;7389675;19;20138;-76
2023/01/13 07:16:31;;;;;;;0.90;0.50;;;11.50;99.90;;;;;;7388157;19;20583;-75
2023/01/13 07:18:56;;;;;;;2.00;1.30;;;11.50;99.90;;;;;;7389765;19;20146;-74
2023/01/13 07:21:22;;;;;;;3.37;0.87;;;11.40;99.90;;;;;;7388493;19;20151;-75
2023/01/13 07:23:48;;;;;;;1.17;0.43;;;11.40;99.90;;;;;;7389182;19;20130;-75
2023/01/13 07:26:14;;;;;;;1.85;0.50;;;11.30;99.90;;;;;;7386663;19;20154;-74
2023/01/13 07:28:40;;;;;;;1.08;0.55;;;11.40;99.90;;;;;;7385997;19;20165;-75
2023/01/13 07:31:18;;;;;;;1.00;0.73;;;11.50;99.90;;;;;;7388506;19;20137;-74
2023/01/13 07:33:44;;;;;;;1.30;0.90;;;11.40;99.90;;;;;;7384219;19;20162;-75
2023/01/13 07:36:10;;;;;;;1.40;0.73;;;11.50;99.90;;;;;;7386293;19;20155;-76
2023/01/13 07:38:38;;;;;;;0.50;0.50;;;11.60;99.90;;;;;;7388627;19;20591;-76
2023/01/13 07:43:50;;;;;;;1.67;1.13;;;11.50;99.90;;;;;;7388471;19;20258;-74
2023/01/13 07:46:17;;;;;;;1.47;1.10;;;11.50;99.90;;;;;;7382114;19;20135;-75
2023/01/13 07:48:45;;;;;;;0.50;0.40;;;11.50;99.90;;;;;;7383706;19;20143;-76
2023/01/13 07:51:11;;;;;;;0.70;0.50;;;11.60;99.90;;;;;;7381946;19;20131;-75
2023/01/13 07:53:37;;;;;;;0.50;0.50;;;11.50;99.90;;;;;;7385234;19;20157;-77
2023/01/13 07:56:05;;;;;;;1.20;0.68;;;11.60;99.90;;;;;;7385647;19;20134;-76
2023/01/13 07:58:32;;;;;;;0.50;0.50;;;11.60;99.90;;;;;;7390755;19;20146;-79
2023/01/13 08:00:58;;;;;;;4.47;0.60;;;11.70;99.90;;;;;;7386751;19;20166;-75
2023/01/13 08:03:26;;;;;;;3.07;0.60;;;11.80;99.90;;;;;;7390191;19;20151;-75
2023/01/13 08:05:52;;;;;;;0.60;0.60;;;11.70;99.90;;;;;;7392576;19;20659;-75
2023/01/13 08:08:18;;;;;;;6.60;0.50;;;11.60;99.90;;;;;;7393328;19;20158;-75
2023/01/13 08:10:45;;;;;;;0.93;0.40;;;11.70;99.90;;;;;;7394599;19;20145;-73
2023/01/13 08:13:18;;;;;;;0.60;0.50;;;11.70;99.90;;;;;;7394708;19;20146;-76
2023/01/13 08:15:49;;;;;;;0.57;0.40;;;11.70;99.90;;;;;;7394975;19;20151;-76
2023/01/13 08:18:21;;;;;;;0.50;0.50;;;11.60;99.90;;;;;;7395345;19;20170;-76
2023/01/13 08:20:51;;;;;;;2.57;1.50;;;11.80;99.90;;;;;;7392740;19;20135;-75
2023/01/13 08:23:18;;;;;;;0.97;0.70;;;11.90;99.90;;;;;;7395810;19;20146;-76
2023/01/13 08:25:45;;;;;;;1.13;0.63;;;11.80;99.90;;;;;;7393131;19;20157;-75
2023/01/13 08:28:11;;;;;;;1.63;0.80;;;11.80;99.90;;;;;;7394810;19;20135;-76
2023/01/13 08:30:37;;;;;;;0.57;0.47;;;11.80;99.90;;;;;;7392260;19;20131;-76
2023/01/13 08:33:06;;;;;;;0.77;0.60;;;12.00;99.90;;;;;;7393301;19;20151;-75
2023/01/13 08:35:34;;;;;;;0.80;0.50;;;12.10;99.90;;;;;;7394120;19;20150;-77
2023/01/13 08:38:00;;;;;;;0.50;0.50;;;12.10;99.90;;;;;;7393854;19;20168;-74
2023/01/13 08:40:25;;;;;;;0.50;0.40;;;11.90;99.90;;;;;;7391736;19;20151;-75
2023/01/13 08:42:53;;;;;;;1.73;0.60;;;12.00;99.90;;;;;;7389734;19;20154;-75
2023/01/13 08:45:19;;;;;;;0.40;0.40;;;11.80;99.90;;;;;;7391303;19;20930;-74
2023/01/13 08:47:46;;;;;;;5.63;2.70;;;11.70;99.90;;;;;;7393352;19;20143;-75
2023/01/13 08:50:12;;;;;;;1.10;0.53;;;11.60;99.90;;;;;;7392673;19;20158;-76
2023/01/13 08:52:39;;;;;;;2.50;1.17;;;11.50;99.90;;;;;;7397578;19;20158;-75
2023/01/13 08:55:07;;;;;;;2.13;1.20;;;11.50;99.90;;;;;;7392092;19;20158;-77
2023/01/13 08:57:33;;;;;;;1.40;0.60;;;11.50;99.90;;;;;;7396209;19;20146;-76
2023/01/13 08:59:59;;;;;;;1.40;0.60;;;11.40;99.90;;;;;;7391448;19;20173;-76
2023/01/13 09:02:25;;;;;;;1.30;0.90;;;11.50;99.90;;;;;;7402135;19;20142;-73
2023/01/13 09:04:52;;;;;;;1.37;0.50;;;11.40;99.90;;;;;;7390645;19;20163;-76
2023/01/13 09:07:19;;;;;;;0.80;0.60;;;11.50;99.90;;;;;;7394308;19;20150;-75
2023/01/13 09:09:45;;;;;;;1.10;0.50;;;11.60;99.90;;;;;;7390091;19;20169;-76
2023/01/13 09:14:57;;;;;;;0.70;0.60;;;11.70;99.90;;;;;;7388580;19;20155;-74
2023/01/13 09:17:22;;;;;;;0.63;0.33;;;11.30;99.90;;;;;;7390096;19;20142;-75
2023/01/13 09:19:49;;;;;;;2.63;0.53;;;11.30;99.90;;;;;;7390559;19;20138;-76
2023/01/13 09:22:16;;;;;;;0.50;0.40;;;11.10;99.90;;;;;;7393639;19;20143;-76
2023/01/13 09:24:43;;;;;;;5.00;1.50;;;11.00;99.90;;;;;;7390695;19;20154;-76
2023/01/13 09:27:13;;;;;;;2.00;0.67;;;11.00;99.90;;;;;;7387990;19;20142;-75
2023/01/13 09:29:39;;;;;;;1.73;0.73;;;11.20;99.90;;;;;;7390433;19;20147;-76
2023/01/13 09:32:06;;;;;;;0.63;0.40;;;10.90;99.90;;;;;;7390621;19;20143;-75
2023/01/13 09:37:17;;;;;;;1.07;0.67;;;11.00;99.90;;;;;;7391344;19;20158;-75
2023/01/13 09:39:45;;;;;;;1.33;0.60;;;11.10;99.90;;;;;;7388864;19;20143;-74
2023/01/13 09:45:19;;;;;;;4.67;1.83;;;11.10;99.90;;;;;;7391087;19;20142;-76
2023/01/13 09:47:50;;;;;;;0.70;0.70;;;11.00;99.90;;;;;;7389989;19;20170;-74
2023/01/13 09:50:23;;;;;;;0.40;0.40;;;11.10;99.90;;;;;;7390896;19;20611;-76
2023/01/13 09:52:49;;;;;;;0.70;0.40;;;11.30;99.90;;;;;;7390987;19;20150;-75
2023/01/13 09:55:24;;;;;;;1.70;0.70;;;11.40;99.90;;;;;;7396167;19;20158;-74
2023/01/13 09:57:50;;;;;;;2.00;0.30;;;11.20;99.90;;;;;;7393224;19;20163;-75
2023/01/13 10:00:21;;;;;;;0.90;0.50;;;11.20;99.90;;;;;;7391667;19;20575;-75
2023/01/13 10:02:56;;;;;;;2.23;0.90;;;11.20;99.90;;;;;;7391483;19;20176;-76
2023/01/13 10:05:34;;;;;;;0.57;0.30;;;11.30;99.90;;;;;;7391803;19;20142;-75
2023/01/13 10:08:15;;;;;;;1.60;0.40;;;11.30;99.90;;;;;;7391005;19;20154;-75
2023/01/13 10:10:43;;;;;;;0.57;0.40;;;11.30;99.90;;;;;;7387771;19;20162;-75
2023/01/13 10:13:13;;;;;;;0.37;0.37;;;11.20;99.90;;;;;;7388330;19;20603;-75
2023/01/13 10:15:46;;;;;;;2.40;0.50;;;11.10;99.90;;;;;;7390105;19;20135;-74
2023/01/13 10:18:41;;;;;;;0.60;0.47;;;11.10;99.90;;;;;;7390476;19;20226;-75
2023/01/13 10:21:26;;;;;;;1.80;0.70;;;11.00;99.90;;;;;;7389602;19;20165;-75
2023/01/13 10:24:00;;;;;;;1.40;0.50;;;11.00;99.90;;;;;;7389555;19;20143;-75
2023/01/13 10:26:47;;;;;;;0.73;0.70;;;11.00;99.90;;;;;;7385289;19;20147;-76
2023/01/13 10:29:25;;;;;;;1.17;0.50;;;11.20;99.90;;;;;;7391057;19;20142;-76
2023/01/13 10:31:56;;;;;;;0.67;0.50;;;11.30;99.90;;;;;;7390343;19;20143;-76
2023/01/13 10:34:23;;;;;;;1.80;0.97;;;11.30;99.90;;;;;;7385882;19;20154;-76
2023/01/13 10:37:04;;;;;;;1.50;0.70;;;11.50;99.90;;;;;;7393275;19;20153;-76
2023/01/13 10:39:45;;;;;;;1.30;0.43;;;11.50;99.90;;;;;;7391008;19;20145;-76
2023/01/13 10:42:21;;;;;;;0.40;0.40;;;11.40;99.90;;;;;;7385007;19;20158;-76
2023/01/13 10:44:59;;;;;;;1.67;0.60;;;11.30;99.90;;;;;;7388500;19;20165;-74
2023/01/13 10:47:32;;;;;;;1.00;0.70;;;11.50;99.90;;;;;;7389602;19;20691;-75
2023/01/13 10:50:10;;;;;;;1.30;0.60;;;11.10;99.90;;;;;;7388620;19;20206;-79
2023/01/13 10:52:41;;;;;;;1.73;0.67;;;11.10;99.90;;;;;;7385344;19;20176;-74
2023/01/13 10:55:57;;;;;;;3.90;1.77;;;11.30;99.90;;;;;;7385783;19;20142;-75
2023/01/13 10:58:24;;;;;;;2.40;1.13;;;11.60;99.90;;;;;;7386060;19;20149;-74
2023/01/13 11:00:59;;;;;;;1.90;0.87;;;11.50;99.90;;;;;;7387794;19;20146;-75
2023/01/13 11:03:33;;;;;;;1.20;0.70;;;11.60;99.90;;;;;;7387357;19;20209;-74
2023/01/13 11:05:59;;;;;;;1.93;1.13;;;11.60;99.90;;;;;;7388397;19;20488;-73
2023/01/13 11:08:29;;;;;;;2.07;0.50;;;11.40;99.90;;;;;;7387867;19;20181;-75
2023/01/13 11:10:57;;;;;;;1.63;0.90;;;11.40;99.90;;;;;;7387056;19;20142;-75
2023/01/13 11:13:23;;;;;;;2.10;0.87;;;11.20;99.90;;;;;;7387548;19;20146;-75
2023/01/13 11:16:13;;;;;;;1.27;0.60;;;11.10;99.90;;;;;;7385847;19;20150;-74
2023/01/13 11:19:12;;;;;;;1.27;0.73;;;10.60;99.90;;;;;;7387061;19;20154;-75
2023/01/13 11:21:48;;;;;;;0.80;0.60;;;10.80;99.90;;;;;;7387933;19;20158;-75
2023/01/13 11:24:40;;;;;;;1.00;0.70;;;10.70;99.90;;;;;;7385876;19;20601;-75
2023/01/13 11:27:35;;;;;;;0.90;0.80;;;10.90;99.90;;;;;;7385655;19;20178;-75
2023/01/13 11:30:09;;;;;;;0.60;0.40;;;10.70;99.90;;;;;;7386163;19;20135;-73
2023/01/13 11:33:19;;;;;;;1.27;0.77;;;10.60;99.90;;;;;;7384086;19;20173;-75
2023/01/13 11:35:59;;;;;;;1.87;0.80;;;10.60;99.90;;;;;;7385999;19;20225;-74
2023/01/13 11:38:47;;;;;;;0.90;0.80;;;10.40;99.90;;;;;;7392074;19;20442;-74
2023/01/13 11:41:27;;;;;;;1.60;0.83;;;10.50;99.90;;;;;;7392846;19;20684;-74
2023/01/13 11:44:19;;;;;;;1.07;0.60;;;10.20;99.90;;;;;;7393515;19;20200;-75
2023/01/13 11:46:48;;;;;;;1.33;0.70;;;10.40;99.90;;;;;;7390432;19;20222;-73
2023/01/13 11:49:22;;;;;;;1.00;0.70;;;10.40;99.90;;;;;;7392900;19;20162;-74
2023/01/13 11:52:05;;;;;;;2.80;0.83;;;10.30;99.90;;;;;;7393552;19;20149;-74
2023/01/13 11:55:05;;;;;;;0.40;0.40;;;10.20;99.90;;;;;;7391302;19;20138;-72
2023/01/13 11:57:40;;;;;;;0.80;0.43;;;10.50;99.90;;;;;;7391450;19;20171;-73
2023/01/13 12:00:31;;;;;;;1.70;1.13;;;10.70;99.90;;;;;;7392489;19;20138;-72
2023/01/13 12:03:20;;;;;;;0.70;0.50;;;10.80;99.90;;;;;;7393402;19;20155;-71
2023/01/13 12:06:15;;;;;;;4.10;2.37;;;11.00;99.90;;;;;;7391637;19;20214;-72
2023/01/13 12:09:10;;;;;;;5.20;1.23;;;10.80;99.90;;;;;;7393334;19;20137;-74
2023/01/13 12:14:42;;;;;;;2.57;0.77;;;11.00;99.90;;;;;;7393195;19;20469;-76
2023/01/13 12:17:35;;;;;;;1.83;0.80;;;11.20;99.90;;;;;;7389828;19;20142;-74
2023/01/13 12:20:32;;;;;;;1.30;0.70;;;11.30;99.90;;;;;;7392616;19;20151;-73
2023/01/13 12:23:02;;;;;;;1.43;0.80;;;11.20;99.90;;;;;;7390599;19;20582;-75
2023/01/13 12:25:31;;;;;;;2.27;0.90;;;11.30;99.90;;;;;;7392244;19;20544;-73
2023/01/13 12:28:13;;;;;;;4.40;1.63;;;11.30;99.90;;;;;;7390913;19;20135;-74
2023/01/13 12:30:58;;;;;;;7.00;4.03;;;11.30;99.90;;;;;;7390978;19;20142;-74
2023/01/13 12:33:43;;;;;;;1.57;1.10;;;11.20;99.90;;;;;;7389603;19;20154;-73
2023/01/13 12:36:29;;;;;;;2.90;0.60;;;11.20;99.90;;;;;;7394918;19;20223;-76
2023/01/13 12:39:01;;;;;;;2.40;0.90;;;11.20;99.90;;;;;;7391211;19;20147;-72
2023/01/13 12:44:29;;;;;;;2.07;0.80;;;11.20;99.90;;;;;;7393067;19;20201;-74
2023/01/13 12:46:57;;;;;;;1.20;0.63;;;11.40;99.90;;;;;;7391945;19;20135;-74
2023/01/13 12:49:33;;;;;;;2.97;0.80;;;11.30;99.90;;;;;;7389963;19;20482;-74
2023/01/13 12:52:05;;;;;;;2.77;1.00;;;11.50;99.90;;;;;;7391247;19;20198;-74
2023/01/13 12:54:40;;;;;;;3.20;1.20;;;11.50;99.90;;;;;;7393259;19;20154;-74
2023/01/13 12:57:35;;;;;;;4.87;1.00;;;11.50;99.90;;;;;;7391796;19;20180;-73
2023/01/13 13:00:04;;;;;;;2.70;0.70;;;11.60;99.90;;;;;;7390425;19;20215;-74
2023/01/13 13:02:36;;;;;;;3.67;1.00;;;11.40;99.90;;;;;;7390119;19;20131;-73
2023/01/13 13:05:21;;;;;;;1.07;0.70;;;11.50;99.90;;;;;;7389198;19;20137;-73
2023/01/13 13:07:59;;;;;;;3.10;0.90;;;11.60;99.90;;;;;;7390175;19;20153;-73
2023/01/13 13:10:37;;;;;;;4.13;1.10;;;11.70;99.90;;;;;;7388338;19;20126;-74
2023/01/13 13:13:19;;;;;;;7.90;2.20;;;11.70;99.90;;;;;;7389033;19;20149;-74
2023/01/13 13:15:50;;;;;;;4.03;1.13;;;11.60;99.90;;;;;;7391266;19;20142;-73
2023/01/13 13:18:16;;;;;;;2.67;1.27;;;11.80;99.90;;;;;;7389247;19;20168;-73
2023/01/13 13:20:57;;;;;;;5.67;1.00;;;11.60;99.90;;;;;;7393478;19;20130;-73
2023/01/13 13:23:37;;;;;;;3.40;1.77;;;11.70;99.90;;;;;;7390812;19;20130;-74
2023/01/13 13:26:23;;;;;;;2.27;0.90;;;11.70;99.90;;;;;;7391003;19;20149;-74
2023/01/13 13:29:23;;;;;;;3.53;0.90;;;11.60;99.90;;;;;;7390005;19;20611;-72
2023/01/13 13:31:51;;;;;;;4.30;1.47;;;11.70;99.90;;;;;;7390539;19;20662;-74
2023/01/13 13:34:26;;;;;;;4.83;1.00;;;11.60;99.90;;;;;;7387483;19;20193;-74
2023/01/13 13:36:58;;;;;;;2.17;1.17;;;11.70;99.90;;;;;;7391905;19;20142;-74
2023/01/13 13:48:29;;;;;;;2.97;0.90;;;11.60;99.90;;;;;;7390600;19;20156;-74
2023/01/13 13:51:01;;;;;;;2.53;0.87;;;11.60;99.90;;;;;;7389768;19;20606;-74
2023/01/13 13:53:31;;;;;;;2.00;0.80;;;11.50;99.90;;;;;;7389488;19;20170;-73
2023/01/13 13:56:00;;;;;;;5.00;1.40;;;11.50;99.90;;;;;;7388422;19;20213;-74
2023/01/13 13:58:28;;;;;;;2.97;0.80;;;11.60;99.90;;;;;;7392032;19;20147;-73
2023/01/13 14:00:55;;;;;;;2.50;0.90;;;11.60;99.90;;;;;;7390486;19;20139;-74
2023/01/13 14:03:35;;;;;;;3.90;0.77;;;11.60;99.90;;;;;;7389982;19;20134;-74
2023/01/13 14:06:03;;;;;;;2.00;0.60;;;11.20;99.90;;;;;;7390310;19;20672;-72
2023/01/13 14:08:32;;;;;;;1.27;0.50;;;11.00;99.90;;;;;;7388920;19;20142;-73
2023/01/13 14:10:59;;;;;;;1.27;0.60;;;10.80;99.90;;;;;;7388376;19;20165;-73
2023/01/13 14:13:30;;;;;;;1.07;0.80;;;11.00;99.90;;;;;;7388376;19;20538;-71
2023/01/13 14:16:02;;;;;;;1.57;0.60;;;10.70;99.90;;;;;;7390716;19;20134;-72